Terminal Aerodrome Forecast
Issued by NWS

Home | Current Version | Previous Version | Text Only | Print | Product List | Glossary On
Versions: 1 2 3 4 5 6 7 8 9 10 11 12 13 14 15 16 17 18 19 20
000
FTUS43 KDVN 201500 AAA
TAFBRL
TAF AMD
KBRL 201556Z 2016/2112 32012KT P6SM SKC
     FM201700 33011KT P6SM FEW050
     FM210000 34005KT P6SM SKC=

USA.gov is the U.S. government's official web portal to all federal, state and local government web resources and services.